sensor_id;sensor_type;location;lat;lon;timestamp;pressure;altitude;pressure_sealevel;temperature;humidity
24280;BME280;12395;42.808;23.408;2022-11-12T00:00:38;96287.28;;;7.93;100.00
24280;BME280;12395;42.808;23.408;2022-11-12T00:03:04;96264.94;;;7.87;100.00
24280;BME280;12395;42.808;23.408;2022-11-12T00:05:30;96271.72;;;7.90;100.00
24280;BME280;12395;42.808;23.408;2022-11-12T00:07:55;96270.22;;;7.87;100.00
24280;BME280;12395;42.808;23.408;2022-11-12T00:10:21;96270.72;;;7.83;100.00
24280;BME280;12395;42.808;23.408;2022-11-12T00:12:47;96268.41;;;7.79;100.00
24280;BME280;12395;42.808;23.408;2022-11-12T00:18:34;96260.03;;;7.58;100.00
24280;BME280;12395;42.808;23.408;2022-11-12T00:20:59;96270.53;;;7.50;100.00
24280;BME280;12395;42.808;23.408;2022-11-12T00:23:25;96261.78;;;7.24;100.00
24280;BME280;12395;42.808;23.408;2022-11-12T00:25:58;96277.59;;;7.24;100.00
24280;BME280;12395;42.808;23.408;2022-11-12T00:28:24;96275.94;;;7.23;100.00
24280;BME280;12395;42.808;23.408;2022-11-12T00:30:49;96259.44;;;7.21;100.00
24280;BME280;12395;42.808;23.408;2022-11-12T00:33:14;96281.28;;;7.31;100.00
24280;BME280;12395;42.808;23.408;2022-11-12T00:35:40;96277.81;;;7.31;100.00
24280;BME280;12395;42.808;23.408;2022-11-12T00:38:05;96269.22;;;7.29;100.00
24280;BME280;12395;42.808;23.408;2022-11-12T00:40:31;96266.44;;;7.30;100.00
24280;BME280;12395;42.808;23.408;2022-11-12T00:42:56;96272.66;;;7.29;100.00
24280;BME280;12395;42.808;23.408;2022-11-12T00:45:22;96269.91;;;7.31;100.00
24280;BME280;12395;42.808;23.408;2022-11-12T00:47:47;96266.59;;;7.29;100.00
24280;BME280;12395;42.808;23.408;2022-11-12T00:50:13;96265.53;;;7.22;100.00
24280;BME280;12395;42.808;23.408;2022-11-12T00:52:40;96257.03;;;7.10;100.00
24280;BME280;12395;42.808;23.408;2022-11-12T00:55:05;96242.84;;;7.03;100.00
24280;BME280;12395;42.808;23.408;2022-11-12T00:57:31;96244.69;;;7.11;100.00
24280;BME280;12395;42.808;23.408;2022-11-12T00:59:56;96231.84;;;7.08;100.00
24280;BME280;12395;42.808;23.408;2022-11-12T01:02:21;96240.50;;;7.00;100.00
24280;BME280;12395;42.808;23.408;2022-11-12T01:04:47;96242.56;;;6.88;100.00
24280;BME280;12395;42.808;23.408;2022-11-12T01:07:13;96259.72;;;6.92;100.00
24280;BME280;12395;42.808;23.408;2022-11-12T01:09:40;96248.97;;;6.86;100.00
24280;BME280;12395;42.808;23.408;2022-11-12T01:12:05;96243.25;;;6.90;100.00
24280;BME280;12395;42.808;23.408;2022-11-12T01:14:31;96245.56;;;6.76;100.00
24280;BME280;12395;42.808;23.408;2022-11-12T01:16:56;96227.59;;;6.71;100.00
24280;BME280;12395;42.808;23.408;2022-11-12T01:19:22;96241.34;;;6.83;100.00
24280;BME280;12395;42.808;23.408;2022-11-12T01:21:47;96246.38;;;6.94;100.00
24280;BME280;12395;42.808;23.408;2022-11-12T01:24:12;96246.38;;;6.94;100.00
24280;BME280;12395;42.808;23.408;2022-11-12T01:26:38;96245.47;;;7.03;100.00
24280;BME280;12395;42.808;23.408;2022-11-12T01:29:04;96243.41;;;7.15;100.00
24280;BME280;12395;42.808;23.408;2022-11-12T01:31:32;96246.84;;;7.33;100.00
24280;BME280;12395;42.808;23.408;2022-11-12T01:34:03;96251.25;;;7.50;100.00
24280;BME280;12395;42.808;23.408;2022-11-12T01:36:32;96244.22;;;7.58;100.00
24280;BME280;12395;42.808;23.408;2022-11-12T01:38:58;96227.91;;;7.63;100.00
24280;BME280;12395;42.808;23.408;2022-11-12T01:41:26;96235.03;;;7.70;100.00
24280;BME280;12395;42.808;23.408;2022-11-12T01:44:18;96231.75;;;7.76;100.00
24280;BME280;12395;42.808;23.408;2022-11-12T01:49:30;96241.38;;;7.86;100.00
24280;BME280;12395;42.808;23.408;2022-11-12T01:51:57;96230.81;;;7.86;100.00
24280;BME280;12395;42.808;23.408;2022-11-12T01:54:27;96240.72;;;7.92;100.00
24280;BME280;12395;42.808;23.408;2022-11-12T01:56:54;96242.03;;;7.88;100.00
24280;BME280;12395;42.808;23.408;2022-11-12T01:59:25;96224.91;;;7.92;100.00
24280;BME280;12395;42.808;23.408;2022-11-12T02:01:52;96242.13;;;8.04;99.08
24280;BME280;12395;42.808;23.408;2022-11-12T02:04:18;96227.25;;;7.95;98.96
24280;BME280;12395;42.808;23.408;2022-11-12T02:06:45;96236.66;;;7.97;98.33
24280;BME280;12395;42.808;23.408;2022-11-12T02:09:12;96241.28;;;8.03;97.78
24280;BME280;12395;42.808;23.408;2022-11-12T02:11:37;96227.09;;;8.04;97.49
24280;BME280;12395;42.808;23.408;2022-11-12T02:14:02;96216.50;;;7.96;95.89
24280;BME280;12395;42.808;23.408;2022-11-12T02:16:41;96234.88;;;8.06;96.15
24280;BME280;12395;42.808;23.408;2022-11-12T02:19:14;96234.22;;;8.04;95.94
24280;BME280;12395;42.808;23.408;2022-11-12T02:21:40;96227.03;;;7.88;95.58
24280;BME280;12395;42.808;23.408;2022-11-12T02:26:53;96241.09;;;7.97;95.70
24280;BME280;12395;42.808;23.408;2022-11-12T02:29:20;96247.88;;;7.99;96.00
24280;BME280;12395;42.808;23.408;2022-11-12T02:31:46;96229.41;;;7.99;96.18
24280;BME280;12395;42.808;23.408;2022-11-12T02:34:12;96226.25;;;7.96;96.32
24280;BME280;12395;42.808;23.408;2022-11-12T02:36:37;96226.56;;;7.93;96.50
24280;BME280;12395;42.808;23.408;2022-11-12T02:39:02;96223.25;;;7.91;96.54
24280;BME280;12395;42.808;23.408;2022-11-12T02:41:28;96225.19;;;7.80;96.80
24280;BME280;12395;42.808;23.408;2022-11-12T02:43:53;96238.03;;;7.75;97.78
24280;BME280;12395;42.808;23.408;2022-11-12T02:46:19;96238.31;;;7.64;98.45
24280;BME280;12395;42.808;23.408;2022-11-12T02:48:44;96236.09;;;7.52;99.16
24280;BME280;12395;42.808;23.408;2022-11-12T02:51:10;96240.00;;;7.40;99.54
24280;BME280;12395;42.808;23.408;2022-11-12T02:53:35;96242.72;;;7.30;100.00
24280;BME280;12395;42.808;23.408;2022-11-12T02:56:01;96243.41;;;7.15;100.00
24280;BME280;12395;42.808;23.408;2022-11-12T02:58:28;96249.00;;;7.12;100.00
24280;BME280;12395;42.808;23.408;2022-11-12T03:00:54;96253.22;;;7.05;100.00
24280;BME280;12395;42.808;23.408;2022-11-12T03:03:20;96229.00;;;6.83;100.00
24280;BME280;12395;42.808;23.408;2022-11-12T03:05:54;96230.97;;;6.64;100.00
24280;BME280;12395;42.808;23.408;2022-11-12T03:08:19;96231.25;;;6.61;100.00
24280;BME280;12395;42.808;23.408;2022-11-12T03:10:45;96252.56;;;6.50;100.00
24280;BME280;12395;42.808;23.408;2022-11-12T03:13:10;96242.84;;;6.33;100.00
24280;BME280;12395;42.808;23.408;2022-11-12T03:15:35;96240.44;;;6.21;100.00
24280;BME280;12395;42.808;23.408;2022-11-12T03:18:01;96232.28;;;6.15;100.00
24280;BME280;12395;42.808;23.408;2022-11-12T03:20:26;96227.03;;;6.15;100.00
24280;BME280;12395;42.808;23.408;2022-11-12T03:22:57;96236.50;;;6.26;100.00
24280;BME280;12395;42.808;23.408;2022-11-12T03:25:24;96234.72;;;6.26;100.00
24280;BME280;12395;42.808;23.408;2022-11-12T03:27:59;96243.56;;;6.25;100.00
24280;BME280;12395;42.808;23.408;2022-11-12T03:30:30;96212.66;;;6.09;100.00
24280;BME280;12395;42.808;23.408;2022-11-12T03:32:56;96227.91;;;6.06;100.00
24280;BME280;12395;42.808;23.408;2022-11-12T03:35:21;96233.25;;;5.96;100.00
24280;BME280;12395;42.808;23.408;2022-11-12T03:37:48;96229.59;;;5.70;100.00
24280;BME280;12395;42.808;23.408;2022-11-12T03:40:13;96237.75;;;5.67;100.00
24280;BME280;12395;42.808;23.408;2022-11-12T03:42:44;96244.75;;;5.49;100.00
24280;BME280;12395;42.808;23.408;2022-11-12T03:45:10;96237.31;;;5.35;100.00
24280;BME280;12395;42.808;23.408;2022-11-12T03:47:42;96246.19;;;5.34;100.00
24280;BME280;12395;42.808;23.408;2022-11-12T03:50:08;96240.25;;;5.32;100.00
24280;BME280;12395;42.808;23.408;2022-11-12T03:52:34;96248.25;;;5.30;100.00
24280;BME280;12395;42.808;23.408;2022-11-12T03:55:00;96240.25;;;5.22;100.00
24280;BME280;12395;42.808;23.408;2022-11-12T03:57:25;96226.47;;;5.11;100.00
24280;BME280;12395;42.808;23.408;2022-11-12T03:59:51;96220.31;;;4.83;100.00
24280;BME280;12395;42.808;23.408;2022-11-12T04:02:16;96229.56;;;4.68;100.00
24280;BME280;12395;42.808;23.408;2022-11-12T04:04:41;96211.75;;;4.52;100.00
24280;BME280;12395;42.808;23.408;2022-11-12T04:07:25;96234.13;;;4.56;100.00
24280;BME280;12395;42.808;23.408;2022-11-12T04:10:09;96228.88;;;4.56;100.00
24280;BME280;12395;42.808;23.408;2022-11-12T04:12:34;96223.19;;;4.51;100.00
24280;BME280;12395;42.808;23.408;2022-11-12T04:15:18;96228.59;;;4.40;100.00
24280;BME280;12395;42.808;23.408;2022-11-12T04:17:44;96237.56;;;4.47;100.00
24280;BME280;12395;42.808;23.408;2022-11-12T04:20:28;96233.56;;;4.43;100.00
24280;BME280;12395;42.808;23.408;2022-11-12T04:23:12;96231.22;;;4.50;100.00
24280;BME280;12395;42.808;23.408;2022-11-12T04:25:38;96221.28;;;4.44;100.00
24280;BME280;12395;42.808;23.408;2022-11-12T04:28:22;96236.06;;;4.54;100.00
24280;BME280;12395;42.808;23.408;2022-11-12T04:30:47;96223.75;;;4.64;100.00
24280;BME280;12395;42.808;23.408;2022-11-12T04:33:13;96208.97;;;4.63;100.00
24280;BME280;12395;42.808;23.408;2022-11-12T04:35:38;96220.56;;;4.70;100.00
24280;BME280;12395;42.808;23.408;2022-11-12T04:38:03;96216.44;;;4.68;100.00
24280;BME280;12395;42.808;23.408;2022-11-12T04:40:30;96222.50;;;4.78;100.00
24280;BME280;12395;42.808;23.408;2022-11-12T04:43:16;96221.53;;;4.89;100.00
24280;BME280;12395;42.808;23.408;2022-11-12T04:46:01;96217.66;;;4.93;100.00
24280;BME280;12395;42.808;23.408;2022-11-12T04:48:27;96222.78;;;4.85;100.00
24280;BME280;12395;42.808;23.408;2022-11-12T04:50:56;96223.88;;;4.92;100.00
24280;BME280;12395;42.808;23.408;2022-11-12T04:53:23;96203.13;;;4.79;100.00
24280;BME280;12395;42.808;23.408;2022-11-12T04:55:49;96219.16;;;4.86;100.00
24280;BME280;12395;42.808;23.408;2022-11-12T04:58:15;96212.28;;;4.75;100.00
24280;BME280;12395;42.808;23.408;2022-11-12T05:00:40;96213.66;;;4.69;100.00
24280;BME280;12395;42.808;23.408;2022-11-12T05:03:06;96222.22;;;4.72;100.00
24280;BME280;12395;42.808;23.408;2022-11-12T05:05:31;96222.50;;;4.68;100.00
24280;BME280;12395;42.808;23.408;2022-11-12T05:07:59;96222.22;;;4.62;100.00
24280;BME280;12395;42.808;23.408;2022-11-12T05:10:24;96231.34;;;4.67;100.00
24280;BME280;12395;42.808;23.408;2022-11-12T05:12:50;96240.72;;;4.80;100.00
24280;BME280;12395;42.808;23.408;2022-11-12T05:15:15;96244.59;;;4.76;100.00
24280;BME280;12395;42.808;23.408;2022-11-12T05:17:41;96243.38;;;4.70;100.00
24280;BME280;12395;42.808;23.408;2022-11-12T05:20:08;96234.91;;;4.86;100.00
24280;BME280;12395;42.808;23.408;2022-11-12T05:22:34;96246.81;;;4.90;100.00
24280;BME280;12395;42.808;23.408;2022-11-12T05:24:59;96244.75;;;4.93;100.00
24280;BME280;12395;42.808;23.408;2022-11-12T05:27:24;96240.16;;;5.05;100.00
24280;BME280;12395;42.808;23.408;2022-11-12T05:29:50;96246.22;;;5.15;100.00
24280;BME280;12395;42.808;23.408;2022-11-12T05:32:16;96256.28;;;5.29;100.00
24280;BME280;12395;42.808;23.408;2022-11-12T05:34:42;96253.50;;;5.30;100.00
24280;BME280;12395;42.808;23.408;2022-11-12T05:37:09;96254.91;;;5.34;100.00
24280;BME280;12395;42.808;23.408;2022-11-12T05:39:35;96257.75;;;5.41;100.00
24280;BME280;12395;42.808;23.408;2022-11-12T05:42:00;96272.69;;;5.50;100.00
24280;BME280;12395;42.808;23.408;2022-11-12T05:44:26;96262.56;;;5.55;100.00
24280;BME280;12395;42.808;23.408;2022-11-12T05:46:51;96252.47;;;5.60;100.00
24280;BME280;12395;42.808;23.408;2022-11-12T05:49:17;96254.50;;;5.66;100.00
24280;BME280;12395;42.808;23.408;2022-11-12T05:51:43;96255.53;;;5.83;100.00
24280;BME280;12395;42.808;23.408;2022-11-12T05:54:09;96263.38;;;6.02;100.00
24280;BME280;12395;42.808;23.408;2022-11-12T05:56:35;96276.28;;;6.22;100.00
24280;BME280;12395;42.808;23.408;2022-11-12T05:59:02;96268.41;;;6.40;100.00
24280;BME280;12395;42.808;23.408;2022-11-12T06:01:28;96277.41;;;6.65;100.00
24280;BME280;12395;42.808;23.408;2022-11-12T06:03:54;96282.53;;;6.84;100.00
24280;BME280;12395;42.808;23.408;2022-11-12T06:06:20;96282.97;;;6.97;100.00
24280;BME280;12395;42.808;23.408;2022-11-12T06:08:45;96269.53;;;7.08;100.00
24280;BME280;12395;42.808;23.408;2022-11-12T06:11:10;96268.03;;;7.23;100.00
24280;BME280;12395;42.808;23.408;2022-11-12T06:13:36;96275.06;;;7.40;100.00
24280;BME280;12395;42.808;23.408;2022-11-12T06:16:01;96283.06;;;7.48;100.00
24280;BME280;12395;42.808;23.408;2022-11-12T06:18:27;96279.59;;;7.48;100.00
24280;BME280;12395;42.808;23.408;2022-11-12T06:20:52;96285.56;;;7.58;100.00
24280;BME280;12395;42.808;23.408;2022-11-12T06:23:36;96288.31;;;7.74;100.00
24280;BME280;12395;42.808;23.408;2022-11-12T06:26:02;96291.88;;;7.91;100.00
24280;BME280;12395;42.808;23.408;2022-11-12T06:28:28;96295.41;;;8.07;99.92
24280;BME280;12395;42.808;23.408;2022-11-12T06:30:54;96289.00;;;8.10;98.82
24280;BME280;12395;42.808;23.408;2022-11-12T06:33:20;96289.38;;;8.23;95.48
24280;BME280;12395;42.808;23.408;2022-11-12T06:35:45;96278.22;;;8.29;96.25
24280;BME280;12395;42.808;23.408;2022-11-12T06:38:10;96289.47;;;8.39;94.26
24280;BME280;12395;42.808;23.408;2022-11-12T06:40:36;96296.25;;;8.41;94.67
24280;BME280;12395;42.808;23.408;2022-11-12T06:43:01;96295.09;;;8.44;95.90
24280;BME280;12395;42.808;23.408;2022-11-12T06:45:27;96295.41;;;8.41;97.41
24280;BME280;12395;42.808;23.408;2022-11-12T06:47:56;96298.91;;;8.49;95.88
24280;BME280;12395;42.808;23.408;2022-11-12T06:50:22;96301.72;;;8.48;94.72
24280;BME280;12395;42.808;23.408;2022-11-12T06:52:47;96292.47;;;8.44;92.25
24280;BME280;12395;42.808;23.408;2022-11-12T06:55:13;96291.13;;;8.40;89.43
24280;BME280;12395;42.808;23.408;2022-11-12T06:57:38;96293.59;;;8.41;89.83
24280;BME280;12395;42.808;23.408;2022-11-12T07:00:04;96287.81;;;8.38;88.87
24280;BME280;12395;42.808;23.408;2022-11-12T07:02:29;96286.31;;;8.27;88.60
24280;BME280;12395;42.808;23.408;2022-11-12T07:04:55;96284.81;;;8.33;87.58
24280;BME280;12395;42.808;23.408;2022-11-12T07:07:20;96290.78;;;8.35;89.26
24280;BME280;12395;42.808;23.408;2022-11-12T07:09:45;96289.47;;;8.39;89.70
24280;BME280;12395;42.808;23.408;2022-11-12T07:12:11;96291.47;;;8.45;90.00
24280;BME280;12395;42.808;23.408;2022-11-12T07:14:36;96301.41;;;8.51;89.00
24280;BME280;12395;42.808;23.408;2022-11-12T07:17:01;96296.16;;;8.59;90.70
24280;BME280;12395;42.808;23.408;2022-11-12T07:19:27;96305.91;;;8.67;86.63
24280;BME280;12395;42.808;23.408;2022-11-12T07:21:52;96316.47;;;8.75;88.68
24280;BME280;12395;42.808;23.408;2022-11-12T07:24:18;96304.09;;;8.75;85.28
24280;BME280;12395;42.808;23.408;2022-11-12T07:26:43;96299.34;;;8.79;84.56
24280;BME280;12395;42.808;23.408;2022-11-12T07:29:08;96321.16;;;8.97;85.85
24280;BME280;12395;42.808;23.408;2022-11-12T07:31:34;96301.84;;;9.04;87.44
24280;BME280;12395;42.808;23.408;2022-11-12T07:33:59;96293.09;;;9.12;88.41
24280;BME280;12395;42.808;23.408;2022-11-12T07:36:25;96266.16;;;9.08;83.17
24280;BME280;12395;42.808;23.408;2022-11-12T07:38:52;96316.22;;;9.26;83.34
24280;BME280;12395;42.808;23.408;2022-11-12T07:41:20;96293.09;;;9.28;82.84
24280;BME280;12395;42.808;23.408;2022-11-12T07:43:47;96278.88;;;9.13;83.18
24280;BME280;12395;42.808;23.408;2022-11-12T07:48:43;96299.22;;;9.04;82.46
24280;BME280;12395;42.808;23.408;2022-11-12T07:51:13;96312.09;;;9.07;81.49
24280;BME280;12395;42.808;23.408;2022-11-12T07:53:39;96307.63;;;9.00;82.57
24280;BME280;12395;42.808;23.408;2022-11-12T07:56:05;96293.56;;;8.99;82.90
24280;BME280;12395;42.808;23.408;2022-11-12T07:58:32;96303.19;;;9.08;83.12
24280;BME280;12395;42.808;23.408;2022-11-12T08:01:06;96313.44;;;9.19;82.87
24280;BME280;12395;42.808;23.408;2022-11-12T08:03:32;96301.19;;;9.10;81.88
24280;BME280;12395;42.808;23.408;2022-11-12T08:05:59;96310.13;;;9.25;81.23
24280;BME280;12395;42.808;23.408;2022-11-12T08:08:25;96308.63;;;9.39;84.12
24280;BME280;12395;42.808;23.408;2022-11-12T08:10:57;96319.88;;;9.41;80.95
24280;BME280;12395;42.808;23.408;2022-11-12T08:13:23;96318.88;;;9.50;79.17
24280;BME280;12395;42.808;23.408;2022-11-12T08:15:49;96308.81;;;9.54;81.13
24280;BME280;12395;42.808;23.408;2022-11-12T08:18:15;96315.91;;;9.61;81.34
24280;BME280;12395;42.808;23.408;2022-11-12T08:20:40;96320.34;;;9.61;78.18
24280;BME280;12395;42.808;23.408;2022-11-12T08:23:06;96319.03;;;9.57;81.76
24280;BME280;12395;42.808;23.408;2022-11-12T08:25:31;96308.78;;;9.38;78.47
24280;BME280;12395;42.808;23.408;2022-11-12T08:27:58;96312.75;;;9.50;80.21
24280;BME280;12395;42.808;23.408;2022-11-12T08:30:25;96331.13;;;9.59;78.01
24280;BME280;12395;42.808;23.408;2022-11-12T08:32:58;96332.28;;;9.73;77.20
24280;BME280;12395;42.808;23.408;2022-11-12T08:35:25;96327.47;;;9.68;76.68
24280;BME280;12395;42.808;23.408;2022-11-12T08:37:55;96326.78;;;9.82;75.02
24280;BME280;12395;42.808;23.408;2022-11-12T08:40:21;96332.91;;;9.83;74.36
24280;BME280;12395;42.808;23.408;2022-11-12T08:42:46;96325.63;;;9.85;75.55
24280;BME280;12395;42.808;23.408;2022-11-12T08:45:12;96333.88;;;9.98;73.72
24280;BME280;12395;42.808;23.408;2022-11-12T08:47:37;96335.53;;;10.07;73.72
24280;BME280;12395;42.808;23.408;2022-11-12T08:50:02;96329.56;;;10.05;74.30
24280;BME280;12395;42.808;23.408;2022-11-12T08:52:28;96326.91;;;10.21;74.32
24280;BME280;12395;42.808;23.408;2022-11-12T08:54:53;96332.59;;;10.49;74.49
24280;BME280;12395;42.808;23.408;2022-11-12T08:57:19;96320.84;;;10.51;71.92
24280;BME280;12395;42.808;23.408;2022-11-12T08:59:44;96335.44;;;10.47;71.45
24280;BME280;12395;42.808;23.408;2022-11-12T09:02:12;96320.63;;;10.22;71.64
24280;BME280;12395;42.808;23.408;2022-11-12T09:04:38;96333.69;;;10.24;73.17
24280;BME280;12395;42.808;23.408;2022-11-12T09:07:03;96319.94;;;10.20;74.10
24280;BME280;12395;42.808;23.408;2022-11-12T09:09:29;96311.69;;;10.07;72.61
24280;BME280;12395;42.808;23.408;2022-11-12T09:11:54;96337.16;;;10.16;74.46
24280;BME280;12395;42.808;23.408;2022-11-12T09:14:20;96320.28;;;10.17;72.61
24280;BME280;12395;42.808;23.408;2022-11-12T09:16:45;96325.22;;;10.20;73.49
24280;BME280;12395;42.808;23.408;2022-11-12T09:19:10;96320.94;;;10.19;72.55
24280;BME280;12395;42.808;23.408;2022-11-12T09:21:36;96324.97;;;9.83;72.82
24280;BME280;12395;42.808;23.408;2022-11-12T09:24:01;96326.75;;;9.90;73.96
24280;BME280;12395;42.808;23.408;2022-11-12T09:26:27;96329.72;;;10.03;74.43
24280;BME280;12395;42.808;23.408;2022-11-12T09:28:52;96326.25;;;10.03;73.99
24280;BME280;12395;42.808;23.408;2022-11-12T09:31:19;96326.28;;;10.11;73.88
24280;BME280;12395;42.808;23.408;2022-11-12T09:33:44;96322.09;;;10.17;72.71
24280;BME280;12395;42.808;23.408;2022-11-12T09:36:09;96316.47;;;10.20;72.99
24280;BME280;12395;42.808;23.408;2022-11-12T09:38:35;96284.84;;;10.10;72.69
24280;BME280;12395;42.808;23.408;2022-11-12T09:43:51;96331.91;;;10.55;71.31
24280;BME280;12395;42.808;23.408;2022-11-12T09:46:46;96322.13;;;10.55;71.35
24280;BME280;12395;42.808;23.408;2022-11-12T09:49:32;96322.78;;;10.57;72.01
24280;BME280;12395;42.808;23.408;2022-11-12T09:52:13;96317.94;;;10.69;72.08
24280;BME280;12395;42.808;23.408;2022-11-12T09:54:41;96331.63;;;10.80;71.34
24280;BME280;12395;42.808;23.408;2022-11-12T09:57:13;96335.94;;;10.73;70.65
24280;BME280;12395;42.808;23.408;2022-11-12T09:59:40;96337.34;;;10.61;71.99
24280;BME280;12395;42.808;23.408;2022-11-12T10:13:27;96342.47;;;10.08;75.54
24280;BME280;12395;42.808;23.408;2022-11-12T10:19:45;96340.31;;;10.03;76.06
24280;BME280;12395;42.808;23.408;2022-11-12T10:21:50;96334.53;;;10.00;74.98
24280;BME280;12395;42.808;23.408;2022-11-12T10:24:20;96333.25;;;9.88;77.01
24280;BME280;12395;42.808;23.408;2022-11-12T10:26:47;96317.53;;;9.78;78.41
24280;BME280;12395;42.808;23.408;2022-11-12T10:29:21;96329.94;;;9.70;79.17
24280;BME280;12395;42.808;23.408;2022-11-12T10:31:50;96332.28;;;9.57;81.30
24280;BME280;12395;42.808;23.408;2022-11-12T10:34:21;96315.56;;;9.56;83.28
24280;BME280;12395;42.808;23.408;2022-11-12T10:39:36;96317.19;;;9.73;82.39
24280;BME280;12395;42.808;23.408;2022-11-12T10:42:22;96321.50;;;9.82;85.78
24280;BME280;12395;42.808;23.408;2022-11-12T10:44:48;96306.78;;;9.88;83.36
24280;BME280;12395;42.808;23.408;2022-11-12T10:50:21;96315.19;;;10.16;78.97
24280;BME280;12395;42.808;23.408;2022-11-12T10:53:05;96317.56;;;10.33;77.38
24280;BME280;12395;42.808;23.408;2022-11-12T10:55:34;96308.19;;;10.31;76.07
24280;BME280;12395;42.808;23.408;2022-11-12T11:00:34;96305.38;;;10.16;76.33
24280;BME280;12395;42.808;23.408;2022-11-12T11:03:01;96307.03;;;10.01;76.95
24280;BME280;12395;42.808;23.408;2022-11-12T11:05:31;96326.75;;;9.90;76.77
24280;BME280;12395;42.808;23.408;2022-11-12T11:07:57;96305.63;;;9.74;78.38
24280;BME280;12395;42.808;23.408;2022-11-12T11:10:31;96320.81;;;9.96;78.75
24280;BME280;12395;42.808;23.408;2022-11-12T11:13:15;96313.69;;;10.13;78.26
24280;BME280;12395;42.808;23.408;2022-11-12T11:18:21;96320.28;;;10.01;77.67
24280;BME280;12395;42.808;23.408;2022-11-12T11:20:58;96308.22;;;10.06;78.55
24280;BME280;12395;42.808;23.408;2022-11-12T11:23:56;96312.03;;;10.04;78.48
24280;BME280;12395;42.808;23.408;2022-11-12T11:34:37;96316.16;;;10.15;78.54
24280;BME280;12395;42.808;23.408;2022-11-12T11:37:30;96305.09;;;10.11;77.31
24280;BME280;12395;42.808;23.408;2022-11-12T11:43:02;96302.47;;;9.79;76.26
24280;BME280;12395;42.808;23.408;2022-11-12T11:46:09;96313.56;;;9.82;76.37
24280;BME280;12395;42.808;23.408;2022-11-12T11:56:50;96293.31;;;10.05;73.89
24280;BME280;12395;42.808;23.408;2022-11-12T12:02:43;96296.38;;;10.41;72.40
24280;BME280;12395;42.808;23.408;2022-11-12T12:08:20;96302.75;;;10.16;72.04
24280;BME280;12395;42.808;23.408;2022-11-12T12:10:55;96293.09;;;10.31;72.57
24280;BME280;12395;42.808;23.408;2022-11-12T12:13:45;96291.53;;;10.45;71.20
24280;BME280;12395;42.808;23.408;2022-11-12T12:21:31;96293.69;;;10.49;71.14
24280;BME280;12395;42.808;23.408;2022-11-12T12:24:03;96295.97;;;10.52;70.82
24280;BME280;12395;42.808;23.408;2022-11-12T12:26:42;96286.28;;;10.37;71.50
24280;BME280;12395;42.808;23.408;2022-11-12T12:29:41;96293.31;;;10.52;71.46
24280;BME280;12395;42.808;23.408;2022-11-12T12:32:18;96279.59;;;10.49;71.35
24280;BME280;12395;42.808;23.408;2022-11-12T12:35:20;96289.97;;;10.28;72.63
24280;BME280;12395;42.808;23.408;2022-11-12T12:37:49;96296.06;;;10.36;73.21
24280;BME280;12395;42.808;23.408;2022-11-12T12:40:21;96296.19;;;10.43;72.53
24280;BME280;12395;42.808;23.408;2022-11-12T12:43:19;96302.19;;;10.29;72.60
24280;BME280;12395;42.808;23.408;2022-11-12T12:45:47;96296.47;;;10.01;73.62
24280;BME280;12395;42.808;23.408;2022-11-12T12:50:41;96275.03;;;9.72;75.49
24280;BME280;12395;42.808;23.408;2022-11-12T13:00:51;96280.00;;;9.59;77.22
24280;BME280;12395;42.808;23.408;2022-11-12T13:06:30;96301.53;;;9.56;78.57
24280;BME280;12395;42.808;23.408;2022-11-12T13:32:53;96277.72;;;8.91;87.31
24280;BME280;12395;42.808;23.408;2022-11-12T13:42:45;96284.50;;;9.42;85.63
24280;BME280;12395;42.808;23.408;2022-11-12T13:45:15;96290.94;;;9.48;83.79
24280;BME280;12395;42.808;23.408;2022-11-12T13:47:42;96279.53;;;9.39;83.79
24280;BME280;12395;42.808;23.408;2022-11-12T13:50:14;96280.69;;;9.28;84.49
24280;BME280;12395;42.808;23.408;2022-11-12T13:52:40;96270.28;;;9.27;84.23
24280;BME280;12395;42.808;23.408;2022-11-12T13:55:13;96279.88;;;9.20;84.62
24280;BME280;12395;42.808;23.408;2022-11-12T13:57:38;96269.63;;;9.01;84.83
24280;BME280;12395;42.808;23.408;2022-11-12T14:00:09;96296.56;;;9.12;85.23
24280;BME280;12395;42.808;23.408;2022-11-12T14:02:50;96289.28;;;9.14;85.49
24280;BME280;12395;42.808;23.408;2022-11-12T14:05:26;96292.91;;;9.13;85.32
24280;BME280;12395;42.808;23.408;2022-11-12T14:11:02;96278.53;;;9.00;85.68
24280;BME280;12395;42.808;23.408;2022-11-12T14:21:57;96283.97;;;8.90;85.40
24280;BME280;12395;42.808;23.408;2022-11-12T14:24:22;96269.75;;;8.83;85.56
24280;BME280;12395;42.808;23.408;2022-11-12T14:26:48;96272.56;;;8.90;85.55
24280;BME280;12395;42.808;23.408;2022-11-12T14:29:16;96288.94;;;8.93;85.79
24280;BME280;12395;42.808;23.408;2022-11-12T14:31:42;96278.38;;;8.93;85.21
24280;BME280;12395;42.808;23.408;2022-11-12T14:34:27;96283.31;;;8.96;85.32
24280;BME280;12395;42.808;23.408;2022-11-12T14:36:53;96280.19;;;9.01;85.31
24280;BME280;12395;42.808;23.408;2022-11-12T14:39:22;96275.72;;;9.01;85.35
24280;BME280;12395;42.808;23.408;2022-11-12T14:41:47;96277.06;;;9.05;85.01
24280;BME280;12395;42.808;23.408;2022-11-12T14:44:34;96291.44;;;9.11;84.61
24280;BME280;12395;42.808;23.408;2022-11-12T14:47:01;96267.81;;;9.01;84.56
24280;BME280;12395;42.808;23.408;2022-11-12T14:51:55;96282.00;;;9.00;84.50
24280;BME280;12395;42.808;23.408;2022-11-12T14:54:30;96292.25;;;9.11;84.87
24280;BME280;12395;42.808;23.408;2022-11-12T14:56:59;96286.78;;;9.05;85.11
24280;BME280;12395;42.808;23.408;2022-11-12T14:59:26;96280.84;;;8.95;85.96
24280;BME280;12395;42.808;23.408;2022-11-12T15:04:42;96282.66;;;8.86;88.47
24280;BME280;12395;42.808;23.408;2022-11-12T15:07:26;96286.94;;;8.79;89.67
24280;BME280;12395;42.808;23.408;2022-11-12T15:09:52;96275.38;;;8.72;91.19
24280;BME280;12395;42.808;23.408;2022-11-12T15:12:20;96276.84;;;8.67;91.97
24280;BME280;12395;42.808;23.408;2022-11-12T15:14:48;96274.00;;;8.60;93.63